createdAt,value
2017-02-09T00:00:35.844Z,1019.94
2017-02-09T00:01:36.378Z,1019.96
2017-02-09T00:02:37.055Z,1019.90
2017-02-09T00:03:37.438Z,1019.93
2017-02-09T00:04:37.964Z,1019.90
2017-02-09T00:05:38.494Z,1019.83
2017-02-09T00:06:39.030Z,1019.84
2017-02-09T00:07:39.559Z,1019.81
2017-02-09T00:08:40.084Z,1019.86
2017-02-09T00:09:40.615Z,1019.72
2017-02-09T00:10:41.147Z,1019.87
2017-02-09T00:11:41.678Z,1019.84
2017-02-09T00:12:42.211Z,1019.93
2017-02-09T00:13:42.738Z,1019.81
2017-02-09T00:14:43.267Z,1019.87
2017-02-09T00:15:43.825Z,1019.90
2017-02-09T00:16:44.329Z,1019.90
2017-02-09T00:17:44.865Z,1019.94
2017-02-09T00:18:45.428Z,1019.97
2017-02-09T00:19:45.923Z,1019.88
2017-02-09T00:20:46.607Z,1019.95
2017-02-09T00:21:47.130Z,1019.87
2017-02-09T00:22:47.515Z,1019.88
2017-02-09T00:23:48.057Z,1019.88
2017-02-09T00:24:48.575Z,1019.83
2017-02-09T00:25:49.106Z,1019.82
2017-02-09T00:26:49.789Z,1019.79
2017-02-09T00:27:50.190Z,1019.80
2017-02-09T00:28:50.706Z,1019.80
2017-02-09T00:29:51.240Z,1019.81
2017-02-09T00:30:51.795Z,1019.83
2017-02-09T00:31:52.303Z,1019.86
2017-02-09T00:32:52.987Z,1019.81
2017-02-09T00:33:53.372Z,1019.91
2017-02-09T00:34:53.906Z,1019.92
2017-02-09T00:35:54.444Z,1019.93
2017-02-09T00:36:55.010Z,1019.94
2017-02-09T00:37:55.507Z,1019.89
2017-02-09T00:38:56.037Z,1019.93
2017-02-09T00:39:56.721Z,1019.97
2017-02-09T00:40:57.253Z,1019.85
2017-02-09T00:41:57.779Z,1019.94
2017-02-09T00:42:58.167Z,1019.82
2017-02-09T00:43:58.697Z,1019.86
2017-02-09T00:44:59.224Z,1019.91
2017-02-09T00:45:59.759Z,1019.86
2017-02-09T00:47:00.325Z,1019.87
2017-02-09T00:48:00.820Z,1019.85
2017-02-09T00:49:01.502Z,1019.86
2017-02-09T00:50:01.883Z,1019.95
2017-02-09T00:51:02.411Z,1019.92
2017-02-09T00:52:02.939Z,1019.89
2017-02-09T00:53:03.474Z,1019.95
2017-02-09T00:54:04.006Z,1019.91
2017-02-09T00:55:04.538Z,1019.93
2017-02-09T00:56:05.067Z,1019.97
2017-02-09T00:57:05.594Z,1019.91
2017-02-09T00:58:06.276Z,1019.91
2017-02-09T00:59:06.665Z,1019.92
2017-02-09T01:00:07.192Z,1019.90
2017-02-09T01:01:07.870Z,1019.94
2017-02-09T01:02:08.251Z,1019.97
2017-02-09T01:03:08.931Z,1019.93
2017-02-09T01:04:09.310Z,1019.94
2017-02-09T01:05:09.840Z,1019.95
2017-02-09T01:06:10.565Z,1020.01
2017-02-09T01:07:10.938Z,1019.99
2017-02-09T01:08:11.434Z,1019.98
2017-02-09T01:09:11.968Z,1019.96
2017-02-09T01:10:12.493Z,1020.00
2017-02-09T01:11:13.022Z,1019.94
2017-02-09T01:12:13.551Z,1019.96
2017-02-09T01:13:14.082Z,1019.95
2017-02-09T01:14:14.767Z,1019.96
2017-02-09T01:15:15.151Z,1019.99
2017-02-09T01:16:15.690Z,1020.02
2017-02-09T01:17:16.222Z,1020.00
2017-02-09T01:18:16.759Z,1019.94
2017-02-09T01:19:17.290Z,1020.01
2017-02-09T01:20:17.828Z,1019.96
2017-02-09T01:21:18.508Z,1020.02
2017-02-09T01:22:18.889Z,1019.99
2017-02-09T01:23:19.418Z,1020.02
2017-02-09T01:24:19.951Z,1020.02
2017-02-09T01:25:20.482Z,1020.00
2017-02-09T01:26:21.015Z,1020.07
2017-02-09T01:27:21.704Z,1019.99
2017-02-09T01:28:22.074Z,1019.93
2017-02-09T01:29:22.602Z,1019.99
2017-02-09T01:30:23.139Z,1020.01
2017-02-09T01:31:23.703Z,1020.05
2017-02-09T01:32:24.210Z,1020.02
2017-02-09T01:33:24.734Z,1020.04
2017-02-09T01:34:25.261Z,1020.07
2017-02-09T01:35:25.792Z,1020.00
2017-02-09T01:36:26.336Z,1019.97
2017-02-09T01:37:26.852Z,1019.98
2017-02-09T01:38:27.391Z,1020.00
2017-02-09T01:39:27.915Z,1020.00
2017-02-09T01:40:28.446Z,1019.99
2017-02-09T01:41:28.978Z,1019.99
2017-02-09T01:42:29.516Z,1019.97
2017-02-09T01:43:30.042Z,1019.98
2017-02-09T01:44:30.571Z,1019.95
2017-02-09T01:45:31.251Z,1019.94
2017-02-09T01:46:31.783Z,1019.93
2017-02-09T01:47:32.160Z,1019.92
2017-02-09T01:48:32.695Z,1019.92
2017-02-09T01:49:33.380Z,1019.94
2017-02-09T01:50:33.758Z,1020.03
2017-02-09T01:51:34.284Z,1020.04
2017-02-09T01:52:34.816Z,1019.99
2017-02-09T01:53:35.347Z,1020.00
2017-02-09T01:54:35.880Z,1020.00
2017-02-09T01:55:36.410Z,1019.98
2017-02-09T01:56:36.967Z,1019.92
2017-02-09T01:57:37.476Z,1019.91
2017-02-09T01:58:38.011Z,1019.89
2017-02-09T01:59:38.696Z,1019.92
2017-02-09T02:00:39.081Z,1019.97
2017-02-09T02:01:39.614Z,1019.93
2017-02-09T02:02:40.300Z,1019.92
2017-02-09T02:03:40.684Z,1019.87
2017-02-09T02:04:41.215Z,1019.81
2017-02-09T02:05:41.747Z,1019.87
2017-02-09T02:06:42.277Z,1019.83
2017-02-09T02:07:42.833Z,1019.84
2017-02-09T02:08:43.340Z,1019.80
2017-02-09T02:09:43.868Z,1019.80
2017-02-09T02:10:44.402Z,1019.78
2017-02-09T02:11:44.933Z,1019.77
2017-02-09T02:12:45.464Z,1019.83
2017-02-09T02:13:45.990Z,1019.81
2017-02-09T02:14:46.522Z,1019.72
2017-02-09T02:15:47.057Z,1019.86
2017-02-09T02:16:47.586Z,1019.78
2017-02-09T02:17:48.122Z,1019.74
2017-02-09T02:18:48.651Z,1019.86
2017-02-09T02:19:49.179Z,1019.78
2017-02-09T02:20:49.713Z,1019.78
2017-02-09T02:21:50.246Z,1019.76
2017-02-09T02:22:50.776Z,1019.80
2017-02-09T02:23:51.304Z,1019.81
2017-02-09T02:24:51.840Z,1019.81
2017-02-09T02:25:52.403Z,1019.77
2017-02-09T02:26:53.069Z,1019.80
2017-02-09T02:27:53.429Z,1019.77
2017-02-09T02:28:53.963Z,1019.76
2017-02-09T02:29:54.642Z,1019.70
2017-02-09T02:30:55.027Z,1019.80
2017-02-09T02:31:55.705Z,1019.75
2017-02-09T02:32:56.087Z,1019.68
2017-02-09T02:33:56.621Z,1019.72
2017-02-09T02:34:57.171Z,1019.71
2017-02-09T02:35:57.677Z,1019.73
2017-02-09T02:36:58.217Z,1019.72
2017-02-09T02:37:58.741Z,1019.76
2017-02-09T02:38:59.276Z,1019.75
2017-02-09T02:39:59.809Z,1019.75
2017-02-09T02:41:00.348Z,1019.74
2017-02-09T02:42:00.884Z,1019.73
2017-02-09T02:43:01.413Z,1019.73
2017-02-09T02:44:01.947Z,1019.77
2017-02-09T02:45:02.487Z,1019.79
2017-02-09T02:46:03.013Z,1019.76
2017-02-09T02:47:03.541Z,1019.76
2017-02-09T02:48:04.072Z,1019.78
2017-02-09T02:49:04.607Z,1019.72
2017-02-09T02:50:05.136Z,1019.75
2017-02-09T02:51:05.672Z,1019.67
2017-02-09T02:52:06.209Z,1019.68
2017-02-09T02:53:06.737Z,1019.64
2017-02-09T02:54:07.298Z,1019.59
2017-02-09T02:55:07.797Z,1019.68
2017-02-09T02:56:08.334Z,1019.70
2017-02-09T02:57:08.856Z,1019.70
2017-02-09T02:58:09.385Z,1019.72
2017-02-09T02:59:09.922Z,1019.72
2017-02-09T03:00:10.599Z,1019.65
2017-02-09T03:01:11.007Z,1019.67
2017-02-09T03:02:11.510Z,1019.65
2017-02-09T03:03:12.042Z,1019.67
2017-02-09T03:04:12.579Z,1019.68
2017-02-09T03:05:13.108Z,1019.70
2017-02-09T03:06:13.801Z,1019.71
2017-02-09T03:07:14.168Z,1019.69
2017-02-09T03:08:14.698Z,1019.74
2017-02-09T03:09:15.229Z,1019.76
2017-02-09T03:10:15.763Z,1019.77
2017-02-09T03:11:16.293Z,1019.77
2017-02-09T03:12:16.826Z,1019.79
2017-02-09T03:13:17.354Z,1019.72
2017-02-09T03:14:18.031Z,1019.73
2017-02-09T03:15:18.425Z,1019.78
2017-02-09T03:16:18.947Z,1019.79
2017-02-09T03:17:19.478Z,1019.76
2017-02-09T03:18:20.154Z,1019.78
2017-02-09T03:19:20.538Z,1019.76
2017-02-09T03:20:21.075Z,1019.83
2017-02-09T03:21:21.603Z,1019.83
2017-02-09T03:22:22.282Z,1019.80
2017-02-09T03:23:27.033Z,1019.79
2017-02-09T03:24:23.355Z,1019.77
2017-02-09T03:25:23.737Z,1019.76
2017-02-09T03:26:24.269Z,1019.76
2017-02-09T03:27:24.953Z,1019.73
2017-02-09T03:28:25.488Z,1019.78
2017-02-09T03:29:25.861Z,1019.79
2017-02-09T03:30:26.545Z,1019.80
2017-02-09T03:31:26.930Z,1019.77
2017-02-09T03:32:27.453Z,1019.76
2017-02-09T03:33:28.134Z,1019.75
2017-02-09T03:34:28.542Z,1019.73
2017-02-09T03:35:29.051Z,1019.82
2017-02-09T03:36:29.579Z,1019.75
2017-02-09T03:37:30.112Z,1019.71
2017-02-09T03:38:30.643Z,1019.78
2017-02-09T03:39:31.179Z,1019.76
2017-02-09T03:40:31.706Z,1019.81
2017-02-09T03:41:32.236Z,1019.79
2017-02-09T03:42:32.916Z,1019.83
2017-02-09T03:43:33.297Z,1019.90
2017-02-09T03:44:33.834Z,1019.83
2017-02-09T03:45:34.366Z,1019.85
2017-02-09T03:46:35.187Z,1019.84
2017-02-09T03:47:35.423Z,1019.85
2017-02-09T03:48:35.956Z,1019.91
2017-02-09T03:49:36.485Z,1019.87
2017-02-09T03:50:37.017Z,1019.83
2017-02-09T03:51:37.548Z,1019.87
2017-02-09T03:52:38.080Z,1019.83
2017-02-09T03:53:38.610Z,1019.88
2017-02-09T03:54:39.141Z,1019.91
2017-02-09T03:55:39.673Z,1019.90
2017-02-09T03:56:40.352Z,1019.86
2017-02-09T03:57:40.735Z,1019.84
2017-02-09T03:58:41.291Z,1019.85
2017-02-09T03:59:41.793Z,1019.83
2017-02-09T04:00:42.326Z,1019.89
2017-02-09T04:01:42.857Z,1019.92
2017-02-09T04:02:43.408Z,1019.88
2017-02-09T04:03:43.919Z,1019.92
2017-02-09T04:04:44.453Z,1019.92
2017-02-09T04:05:44.985Z,1019.88
2017-02-09T04:06:45.521Z,1019.88
2017-02-09T04:07:46.060Z,1019.86
2017-02-09T04:08:46.589Z,1019.92
2017-02-09T04:09:47.123Z,1019.93
2017-02-09T04:10:47.655Z,1019.91
2017-02-09T04:11:48.181Z,1019.92
2017-02-09T04:12:48.713Z,1019.92
2017-02-09T04:13:49.242Z,1019.97
2017-02-09T04:14:49.926Z,1019.93
2017-02-09T04:15:50.451Z,1019.96
2017-02-09T04:16:50.985Z,1019.87
2017-02-09T04:17:51.513Z,1019.94
2017-02-09T04:18:51.906Z,1019.88
2017-02-09T04:19:52.428Z,1019.85
2017-02-09T04:20:53.108Z,1019.85
2017-02-09T04:21:53.635Z,1019.82
2017-02-09T04:22:54.171Z,1019.82
2017-02-09T04:23:54.558Z,1019.79
2017-02-09T04:24:55.237Z,1019.88
2017-02-09T04:25:55.622Z,1019.87
2017-02-09T04:26:56.374Z,1019.82
2017-02-09T04:27:56.677Z,1019.88
2017-02-09T04:28:57.243Z,1019.88
2017-02-09T04:29:57.745Z,1019.89
2017-02-09T04:30:58.276Z,1019.89
2017-02-09T04:31:58.813Z,1019.90
2017-02-09T04:32:59.333Z,1019.91
2017-02-09T04:34:00.013Z,1019.89
2017-02-09T04:35:00.398Z,1019.86
2017-02-09T04:36:00.931Z,1019.88
2017-02-09T04:37:01.458Z,1019.95
2017-02-09T04:38:02.137Z,1019.89
2017-02-09T04:39:02.521Z,1019.88
2017-02-09T04:40:03.051Z,1019.86
2017-02-09T04:41:03.583Z,1019.83
2017-02-09T04:42:04.117Z,1019.83
2017-02-09T04:43:04.650Z,1019.80
2017-02-09T04:44:05.187Z,1019.81
2017-02-09T04:45:05.725Z,1019.87
2017-02-09T04:46:06.246Z,1019.83
2017-02-09T04:47:06.782Z,1019.85
2017-02-09T04:48:07.316Z,1019.85
2017-02-09T04:49:07.999Z,1019.84
2017-02-09T04:50:08.394Z,1019.87
2017-02-09T04:51:09.067Z,1019.88
2017-02-09T04:52:09.450Z,1019.84
2017-02-09T04:53:09.986Z,1019.90
2017-02-09T04:54:10.511Z,1019.83
2017-02-09T04:55:11.043Z,1019.92
2017-02-09T04:56:11.720Z,1019.85
2017-02-09T04:57:12.107Z,1019.81
2017-02-09T04:58:12.638Z,1019.89
2017-02-09T04:59:13.168Z,1019.86
2017-02-09T05:00:13.843Z,1019.88
2017-02-09T05:01:14.228Z,1019.83
2017-02-09T05:02:14.756Z,1019.86
2017-02-09T05:03:15.289Z,1019.82
2017-02-09T05:04:15.815Z,1019.83
2017-02-09T05:05:16.354Z,1019.85
2017-02-09T05:06:16.884Z,1019.90
2017-02-09T05:07:17.410Z,1019.89
2017-02-09T05:08:17.951Z,1019.89
2017-02-09T05:09:18.490Z,1019.88
2017-02-09T05:10:19.025Z,1019.89
2017-02-09T05:11:19.590Z,1019.90
2017-02-09T05:12:20.088Z,1019.90
2017-02-09T05:13:20.621Z,1019.90
2017-02-09T05:14:21.152Z,1019.91
2017-02-09T05:15:21.677Z,1019.87
2017-02-09T05:16:22.216Z,1019.91
2017-02-09T05:17:22.743Z,1019.93
2017-02-09T05:18:23.419Z,1019.95
2017-02-09T05:19:23.955Z,1019.94
2017-02-09T05:20:24.335Z,1019.96
2017-02-09T05:21:24.863Z,1019.93
2017-02-09T05:22:25.404Z,1019.93
2017-02-09T05:23:26.083Z,1019.90
2017-02-09T05:24:26.465Z,1019.90
2017-02-09T05:25:27.145Z,1019.92
2017-02-09T05:26:27.527Z,1019.93
2017-02-09T05:27:28.213Z,1019.97
2017-02-09T05:28:28.595Z,1019.93
2017-02-09T05:29:29.278Z,1019.98
2017-02-09T05:31:30.351Z,1019.95
2017-02-09T05:32:30.739Z,1019.97
2017-02-09T05:33:31.424Z,1019.96
2017-02-09T05:34:31.805Z,1019.97
2017-02-09T05:35:32.332Z,1019.94
2017-02-09T05:36:32.866Z,1019.95
2017-02-09T05:37:33.548Z,1019.93
2017-02-09T05:38:33.935Z,1019.97
2017-02-09T05:39:34.608Z,1019.96
2017-02-09T05:40:34.990Z,1019.92
2017-02-09T05:41:35.523Z,1019.97
2017-02-09T05:42:36.197Z,1019.89
2017-02-09T05:43:36.731Z,1019.87
2017-02-09T05:44:37.118Z,1019.95
2017-02-09T05:45:37.648Z,1019.98
2017-02-09T05:46:38.351Z,1019.99
2017-02-09T05:47:38.705Z,1019.90
2017-02-09T05:48:39.244Z,1019.95
2017-02-09T05:49:39.800Z,1019.94
2017-02-09T05:50:40.304Z,1019.93
2017-02-09T05:51:40.991Z,1019.91
2017-02-09T05:52:41.518Z,1019.93
2017-02-09T05:53:41.903Z,1019.92
2017-02-09T05:54:42.434Z,1019.90
2017-02-09T05:55:42.965Z,1019.93
2017-02-09T05:56:43.498Z,1019.89
2017-02-09T05:57:44.025Z,1019.94
2017-02-09T05:58:44.561Z,1019.93
2017-02-09T05:59:45.093Z,1019.93
2017-02-09T06:00:45.621Z,1019.95
2017-02-09T06:01:46.154Z,1019.88
2017-02-09T06:02:46.684Z,1019.95
2017-02-09T06:03:47.215Z,1019.96
2017-02-09T06:04:47.750Z,1020.00
2017-02-09T06:05:48.425Z,1019.96
2017-02-09T06:06:48.809Z,1019.93
2017-02-09T06:07:49.365Z,1019.94
2017-02-09T06:08:49.867Z,1020.02
2017-02-09T06:09:50.396Z,1019.97
2017-02-09T06:10:50.928Z,1019.96
2017-02-09T06:11:51.614Z,1020.01
2017-02-09T06:12:52.146Z,1020.03
2017-02-09T06:13:52.686Z,1020.04
2017-02-09T06:14:53.085Z,1020.05
2017-02-09T06:15:53.605Z,1020.06
2017-02-09T06:16:54.137Z,1020.05
2017-02-09T06:17:54.668Z,1020.05
2017-02-09T06:18:55.345Z,1020.08
2017-02-09T06:19:55.728Z,1020.03
2017-02-09T06:20:56.262Z,1020.04
2017-02-09T06:21:56.797Z,1020.10
2017-02-09T06:22:57.334Z,1020.08
2017-02-09T06:23:57.855Z,1020.03
2017-02-09T06:24:58.389Z,1020.04
2017-02-09T06:25:59.257Z,1020.06
2017-02-09T06:26:59.597Z,1020.06
2017-02-09T06:27:59.981Z,1020.07
2017-02-09T06:29:00.514Z,1020.01
2017-02-09T06:30:01.049Z,1020.08
2017-02-09T06:31:01.575Z,1020.07
2017-02-09T06:32:02.258Z,1020.08
2017-02-09T06:33:02.644Z,1020.02
2017-02-09T06:34:03.178Z,1020.10
2017-02-09T06:35:03.708Z,1020.05
2017-02-09T06:36:04.384Z,1020.08
2017-02-09T06:37:04.767Z,1020.10
2017-02-09T06:38:05.447Z,1020.07
2017-02-09T06:39:05.830Z,1020.06
2017-02-09T06:40:06.359Z,1020.09
2017-02-09T06:41:07.040Z,1020.14
2017-02-09T06:42:07.422Z,1020.14
2017-02-09T06:43:07.953Z,1020.12
2017-02-09T06:44:08.634Z,1020.08
2017-02-09T06:45:09.017Z,1020.10
2017-02-09T06:46:09.694Z,1020.08
2017-02-09T06:47:10.222Z,1020.15
2017-02-09T06:48:10.759Z,1020.15
2017-02-09T06:49:11.144Z,1020.11
2017-02-09T06:50:11.674Z,1020.16
2017-02-09T06:51:12.200Z,1020.12
2017-02-09T06:52:12.734Z,1020.12
2017-02-09T06:53:13.266Z,1020.12
2017-02-09T06:54:13.946Z,1020.10
2017-02-09T06:55:14.332Z,1020.07
2017-02-09T06:56:15.017Z,1020.09
2017-02-09T06:57:15.403Z,1020.07
2017-02-09T06:58:16.083Z,1020.11
2017-02-09T06:59:16.469Z,1020.10
2017-02-09T07:00:16.992Z,1020.08
2017-02-09T07:01:17.526Z,1020.06
2017-02-09T07:02:18.053Z,1020.02
2017-02-09T07:03:18.596Z,1020.05
2017-02-09T07:04:19.280Z,1020.06
2017-02-09T07:05:19.686Z,1020.09
2017-02-09T07:06:20.348Z,1020.06
2017-02-09T07:07:20.721Z,1020.08
2017-02-09T07:08:21.254Z,1020.04
2017-02-09T07:09:21.780Z,1020.07
2017-02-09T07:10:22.311Z,1020.06
2017-02-09T07:11:22.841Z,1020.09
2017-02-09T07:12:23.369Z,1020.08
2017-02-09T07:13:23.902Z,1020.06
2017-02-09T07:14:24.431Z,1020.06
2017-02-09T07:15:24.963Z,1020.12
2017-02-09T07:16:25.526Z,1020.08
2017-02-09T07:17:26.025Z,1020.08
2017-02-09T07:18:26.559Z,1020.09
2017-02-09T07:19:27.094Z,1020.06
2017-02-09T07:20:27.620Z,1020.09
2017-02-09T07:21:28.151Z,1020.09
2017-02-09T07:22:28.682Z,1020.08
2017-02-09T07:23:29.215Z,1020.09
2017-02-09T07:24:29.898Z,1020.11
2017-02-09T07:25:30.305Z,1020.10
2017-02-09T07:26:30.863Z,1020.10
2017-02-09T07:27:31.338Z,1020.07
2017-02-09T07:28:31.873Z,1020.07
2017-02-09T07:29:32.406Z,1020.07
2017-02-09T07:30:32.933Z,1020.10
2017-02-09T07:31:33.468Z,1020.06
2017-02-09T07:32:34.144Z,1020.06
2017-02-09T07:33:34.526Z,1020.12
2017-02-09T07:34:35.056Z,1020.12
2017-02-09T07:35:35.739Z,1020.13
2017-02-09T07:36:36.275Z,1020.09
2017-02-09T07:37:36.664Z,1020.10
2017-02-09T07:38:37.349Z,1020.08
2017-02-09T07:39:37.732Z,1020.10
2017-02-09T07:40:38.267Z,1020.06
2017-02-09T07:41:38.848Z,1020.06
2017-02-09T07:42:39.360Z,1020.06
2017-02-09T07:43:39.939Z,1020.06
2017-02-09T07:44:40.460Z,1020.06
2017-02-09T07:45:41.308Z,1020.06
2017-02-09T07:46:41.588Z,1020.06
2017-02-09T07:47:42.112Z,1020.06
2017-02-09T07:48:42.682Z,1020.06
2017-02-09T07:49:43.204Z,1020.06
2017-02-09T07:50:43.747Z,1020.14
2017-02-09T07:51:44.281Z,1020.18
2017-02-09T07:52:44.812Z,1020.14
2017-02-09T07:53:45.342Z,1020.13
2017-02-09T07:54:45.868Z,1020.18
2017-02-09T07:55:46.547Z,1020.18
2017-02-09T07:56:46.933Z,1020.17
2017-02-09T07:57:47.466Z,1020.15
2017-02-09T07:58:48.029Z,1020.16
2017-02-09T07:59:48.523Z,1020.13
2017-02-09T08:00:49.204Z,1020.14
2017-02-09T08:01:49.585Z,1020.26
2017-02-09T08:02:50.267Z,1020.19
2017-02-09T08:03:50.798Z,1020.13
2017-02-09T08:04:51.176Z,1020.14
2017-02-09T08:05:51.710Z,1020.13
2017-02-09T08:06:52.241Z,1020.14
2017-02-09T08:07:52.775Z,1020.15
2017-02-09T08:08:53.306Z,1020.14
2017-02-09T08:09:53.837Z,1020.21
2017-02-09T08:10:54.370Z,1020.15
2017-02-09T08:11:54.902Z,1020.12
2017-02-09T08:12:55.431Z,1020.24
2017-02-09T08:13:55.967Z,1020.15
2017-02-09T08:14:56.504Z,1020.16
2017-02-09T08:15:57.032Z,1020.15
2017-02-09T08:16:57.597Z,1020.10
2017-02-09T08:17:58.097Z,1020.09
2017-02-09T08:18:58.782Z,1020.13
2017-02-09T08:19:59.169Z,1020.10
2017-02-09T08:20:59.708Z,1020.18
2017-02-09T08:22:00.387Z,1020.17
2017-02-09T08:23:00.800Z,1020.18
2017-02-09T08:24:01.307Z,1020.13
2017-02-09T08:25:01.836Z,1020.14
2017-02-09T08:26:02.526Z,1020.11
2017-02-09T08:27:02.919Z,1020.14
2017-02-09T08:28:03.576Z,1020.15
2017-02-09T08:29:03.981Z,1020.17
2017-02-09T08:30:04.491Z,1020.16
2017-02-09T08:31:05.019Z,1020.11
2017-02-09T08:32:05.549Z,1020.10
2017-02-09T08:33:06.231Z,1020.11
2017-02-09T08:34:06.757Z,1020.11
2017-02-09T08:35:07.145Z,1020.12
2017-02-09T08:36:07.819Z,1020.12
2017-02-09T08:37:08.205Z,1020.14
2017-02-09T08:38:08.739Z,1020.17
2017-02-09T08:39:09.283Z,1020.11
2017-02-09T08:40:09.948Z,1020.02
2017-02-09T08:41:10.329Z,1020.02
2017-02-09T08:42:10.864Z,1020.03
2017-02-09T08:43:11.391Z,1020.04
2017-02-09T08:44:11.925Z,1020.06
2017-02-09T08:45:12.606Z,1020.04
2017-02-09T08:46:13.005Z,1020.04
2017-02-09T08:47:13.544Z,1020.07
2017-02-09T08:48:14.085Z,1020.07
2017-02-09T08:49:14.774Z,1020.10
2017-02-09T08:50:15.167Z,1020.07
2017-02-09T08:51:15.693Z,1020.12
2017-02-09T08:52:16.378Z,1020.10
2017-02-09T08:53:16.772Z,1020.10
2017-02-09T08:54:17.306Z,1020.13
2017-02-09T08:55:17.848Z,1020.04
2017-02-09T08:56:18.383Z,1020.05
2017-02-09T08:57:18.914Z,1020.03
2017-02-09T08:58:19.451Z,1020.01
2017-02-09T08:59:20.017Z,1020.07
2017-02-09T09:00:20.515Z,1020.07
2017-02-09T09:01:21.051Z,1020.05
2017-02-09T09:02:21.591Z,1020.01
2017-02-09T09:03:22.122Z,1020.04
2017-02-09T09:04:22.657Z,1020.04
2017-02-09T09:05:23.336Z,1019.99
2017-02-09T09:06:24.018Z,1020.06
2017-02-09T09:07:24.242Z,1019.99
2017-02-09T09:08:24.784Z,1020.02
2017-02-09T09:09:25.305Z,1019.99
2017-02-09T09:10:25.842Z,1019.97
2017-02-09T09:11:26.373Z,1019.94
2017-02-09T09:12:27.054Z,1019.96
2017-02-09T09:13:27.441Z,1020.02
2017-02-09T09:14:27.979Z,1020.08
2017-02-09T09:15:28.508Z,1020.00
2017-02-09T09:16:29.042Z,1020.03
2017-02-09T09:17:29.568Z,1020.01
2017-02-09T09:18:30.101Z,1020.06
2017-02-09T09:19:30.630Z,1019.98
2017-02-09T09:20:31.164Z,1019.98
2017-02-09T09:21:31.697Z,1019.93
2017-02-09T09:22:32.223Z,1019.98
2017-02-09T09:23:32.751Z,1019.96
2017-02-09T09:24:33.286Z,1019.97
2017-02-09T09:25:33.815Z,1019.94
2017-02-09T09:26:34.347Z,1019.98
2017-02-09T09:27:34.878Z,1019.96
2017-02-09T09:28:35.409Z,1020.02
2017-02-09T09:29:35.940Z,1019.96
2017-02-09T09:30:36.468Z,1019.98
2017-02-09T09:31:37.003Z,1019.96
2017-02-09T09:32:37.533Z,1019.90
2017-02-09T09:33:38.064Z,1020.00
2017-02-09T09:34:38.594Z,1019.95
2017-02-09T09:35:39.277Z,1020.00
2017-02-09T09:36:39.656Z,1020.01
2017-02-09T09:37:40.337Z,1020.02
2017-02-09T09:38:40.718Z,1020.01
2017-02-09T09:39:41.397Z,1019.93
2017-02-09T09:40:41.778Z,1019.87
2017-02-09T09:41:42.305Z,1019.92
2017-02-09T09:42:42.843Z,1019.93
2017-02-09T09:43:43.372Z,1019.88
2017-02-09T09:44:44.059Z,1019.91
2017-02-09T09:45:44.632Z,1019.92
2017-02-09T09:46:44.988Z,1019.88
2017-02-09T09:47:45.514Z,1019.84
2017-02-09T09:48:46.045Z,1019.92
2017-02-09T09:49:46.573Z,1019.89
2017-02-09T09:50:47.109Z,1019.84
2017-02-09T09:51:47.646Z,1019.86
2017-02-09T09:52:48.170Z,1019.90
2017-02-09T09:53:48.852Z,1019.87
2017-02-09T09:54:49.231Z,1019.85
2017-02-09T09:55:49.763Z,1019.84
2017-02-09T09:56:50.293Z,1019.86
2017-02-09T09:57:50.972Z,1019.84
2017-02-09T09:58:51.501Z,1019.78
2017-02-09T09:59:51.885Z,1019.83
2017-02-09T10:00:52.559Z,1019.80
2017-02-09T10:01:53.092Z,1019.83
2017-02-09T10:02:53.479Z,1019.83
2017-02-09T10:03:54.002Z,1019.84
2017-02-09T10:04:54.534Z,1019.85
2017-02-09T10:05:55.065Z,1019.88
2017-02-09T10:06:55.596Z,1019.85
2017-02-09T10:07:56.276Z,1019.89
2017-02-09T10:08:56.659Z,1019.88
2017-02-09T10:09:57.189Z,1019.86
2017-02-09T10:10:57.726Z,1019.89
2017-02-09T10:11:58.405Z,1019.89
2017-02-09T10:12:58.784Z,1019.77
2017-02-09T10:13:59.463Z,1019.80
2017-02-09T10:14:59.843Z,1019.85
2017-02-09T10:16:00.384Z,1019.83
2017-02-09T10:17:00.906Z,1019.82
2017-02-09T10:18:01.439Z,1019.82
2017-02-09T10:19:01.967Z,1019.82
2017-02-09T10:20:02.500Z,1019.72
2017-02-09T10:21:03.179Z,1019.79
2017-02-09T10:22:03.558Z,1019.79
2017-02-09T10:23:04.094Z,1019.81
2017-02-09T10:24:04.625Z,1019.76
2017-02-09T10:25:05.157Z,1019.82
2017-02-09T10:26:05.845Z,1019.78
2017-02-09T10:27:06.233Z,1019.80
2017-02-09T10:28:06.913Z,1019.79
2017-02-09T10:29:07.296Z,1019.75
2017-02-09T10:30:07.827Z,1019.73
2017-02-09T10:31:08.365Z,1019.75
2017-02-09T10:32:08.896Z,1019.71
2017-02-09T10:33:09.425Z,1019.72
2017-02-09T10:34:10.108Z,1019.70
2017-02-09T10:35:10.490Z,1019.73
2017-02-09T10:36:11.021Z,1019.69
2017-02-09T10:37:11.554Z,1019.67
2017-02-09T10:38:12.231Z,1019.70
2017-02-09T10:39:12.615Z,1019.69
2017-02-09T10:40:13.296Z,1019.67
2017-02-09T10:41:13.676Z,1019.66
2017-02-09T10:42:14.355Z,1019.69
2017-02-09T10:43:14.739Z,1019.60
2017-02-09T10:44:15.272Z,1019.67
2017-02-09T10:45:15.801Z,1019.69
2017-02-09T10:46:16.487Z,1019.70
2017-02-09T10:47:16.859Z,1019.60
2017-02-09T10:48:17.422Z,1019.65
2017-02-09T10:49:17.920Z,1019.67
2017-02-09T10:50:18.600Z,1019.66
2017-02-09T10:51:19.127Z,1019.65
2017-02-09T10:52:19.666Z,1019.66
2017-02-09T10:53:20.041Z,1019.68
2017-02-09T10:54:20.583Z,1019.61
2017-02-09T10:55:21.106Z,1019.63
2017-02-09T10:56:21.635Z,1019.63
2017-02-09T10:57:22.165Z,1019.57
2017-02-09T10:58:22.698Z,1019.63
2017-02-09T10:59:23.371Z,1019.59
2017-02-09T11:00:23.752Z,1019.58
2017-02-09T11:01:24.286Z,1019.59
2017-02-09T11:02:24.816Z,1019.54
2017-02-09T11:03:25.346Z,1019.55
2017-02-09T11:04:26.169Z,1019.58
2017-02-09T11:05:26.552Z,1019.57
2017-02-09T11:06:26.934Z,1019.57
2017-02-09T11:07:27.470Z,1019.60
2017-02-09T11:08:28.004Z,1019.54
2017-02-09T11:09:28.565Z,1019.56
2017-02-09T11:10:29.070Z,1019.53
2017-02-09T11:11:29.604Z,1019.51
2017-02-09T11:12:30.142Z,1019.50
2017-02-09T11:13:30.812Z,1019.51
2017-02-09T11:14:31.194Z,1019.50
2017-02-09T11:15:31.875Z,1019.53
2017-02-09T11:16:32.413Z,1019.44
2017-02-09T11:17:32.791Z,1019.39
2017-02-09T11:18:33.320Z,1019.41
2017-02-09T11:19:33.852Z,1019.46
2017-02-09T11:20:34.382Z,1019.41
2017-02-09T11:21:34.912Z,1019.38
2017-02-09T11:22:35.444Z,1019.42
2017-02-09T11:23:35.975Z,1019.39
2017-02-09T11:24:36.653Z,1019.44
2017-02-09T11:25:37.034Z,1019.42
2017-02-09T11:26:37.566Z,1019.33
2017-02-09T11:27:38.101Z,1019.32
2017-02-09T11:28:38.629Z,1019.30
2017-02-09T11:29:39.162Z,1019.35
2017-02-09T11:30:39.694Z,1019.34
2017-02-09T11:31:40.228Z,1019.29
2017-02-09T11:32:40.754Z,1019.33
2017-02-09T11:33:41.435Z,1019.28
2017-02-09T11:34:41.821Z,1019.27
2017-02-09T11:35:42.354Z,1019.34
2017-02-09T11:36:42.883Z,1019.33
2017-02-09T11:37:43.410Z,1019.31
2017-02-09T11:38:43.973Z,1019.30
2017-02-09T11:39:44.471Z,1019.28
2017-02-09T11:40:44.997Z,1019.27
2017-02-09T11:41:45.529Z,1019.24
2017-02-09T11:42:46.217Z,1019.27
2017-02-09T11:43:46.592Z,1019.27
2017-02-09T11:44:47.120Z,1019.25
2017-02-09T11:45:47.652Z,1019.25
2017-02-09T11:46:48.183Z,1019.26
2017-02-09T11:47:48.714Z,1019.25
2017-02-09T11:48:49.242Z,1019.27
2017-02-09T11:49:49.781Z,1019.30
2017-02-09T11:50:50.463Z,1019.19
2017-02-09T11:51:50.855Z,1019.25
2017-02-09T11:52:51.534Z,1019.21
2017-02-09T11:53:51.914Z,1019.26
2017-02-09T11:54:52.440Z,1019.15
2017-02-09T11:55:53.119Z,1019.17
2017-02-09T11:56:53.652Z,1019.19
2017-02-09T11:57:54.037Z,1019.20
2017-02-09T11:58:54.573Z,1019.22
2017-02-09T11:59:55.101Z,1019.25
2017-02-09T12:00:55.627Z,1019.25
2017-02-09T12:01:56.160Z,1019.24
2017-02-09T12:02:56.835Z,1019.18
2017-02-09T12:03:57.223Z,1019.16
2017-02-09T12:04:57.904Z,1019.22
2017-02-09T12:05:58.286Z,1019.18
2017-02-09T12:06:58.962Z,1019.18
2017-02-09T12:07:59.490Z,1019.21
2017-02-09T12:08:59.876Z,1019.23
2017-02-09T12:10:00.409Z,1019.22
2017-02-09T12:11:00.938Z,1019.20
2017-02-09T12:12:01.471Z,1019.20
2017-02-09T12:13:02.149Z,1019.24